Hlavní strana
METAR-TAF:

METAR-TAF

Letiště :

Örnsköldsvik, Švédsko

zeměpisná šířka: 63-24N, zeměpisná délka: 018-58E, výška: 103 m

Aktuální stav počasí

Zpráva byla vytvořena před 42 minutami, v 23:20 UTC
Západojihozápadní vítr 4 kt
Teplota 0°C
Vlhkost vzduchu 100%
Tlak 1016 hPa
Viditelnost: 8000 m
kouřmo

METAR: ESNO 202320Z AUTO 24004KT 8000 BR NCD 00/M00 Q1016

Čas: 02:02 (00:02 UTC)

Předpověď počasí

Zpráva byla vytvořena před 15 hodinami a 32 minutami, v 08:30 UTC
Předpověď platná od 20 v 09 UTC do 20 v 12 UTC
vítr z různých směrů 2 kt
Viditelnost 10 km a více
Žádná oblačnost pod 1500 m, nevyskytují se cumulonimby.

TAF: ESNO 200830Z 2009/2012 VRB02KT CAVOK

Stav a předpovědi počasí z více než 4 000 letišť (zprávy METAR a TAF).

Červené a žluté tečky na mapě představují dostupné meteorologické stanice.

Když kurzor umístíte na tečku, zobrazí se název stanice.

Pak kliknutím zobrazíte stav a předpověď počasí.

Chcete-li změnit mapu, kliknutím na zelené tlačítko se znaménkem +mapu přiblížíte, kliknutím na zelené tlačítko se znaménkem – mapu oddálíte a kliknutím na zelené šipky přejdete na sousední mapy.


METAR-TAF: